Time;durP1;ratioP1;P1;durP2;ratioP2;P2;SDS_P1;SDS_P2;PMS_P1;PMS_P2;Temp;Humidity;BMP_temperature;BMP_pressure;BME280_temperature;BME280_humidity;BME280_pressure;Samples;Min_cycle;Max_cycle;Signal;HPM_P1;HPM_P2
2024/02/21 00:00:02;;;;;;;0.30;0.20;;;;;;;10.49;86.65;101183.59;5052547;28;20538;-46
2024/02/21 00:02:29;;;;;;;0.30;0.20;;;;;;;10.64;86.39;101180.72;5052074;28;20562;-46
2024/02/21 00:04:55;;;;;;;0.30;0.20;;;;;;;10.53;86.27;101162.25;5052395;28;20454;-46
2024/02/21 00:07:22;;;;;;;0.30;0.20;;;;;;;10.51;86.83;101150.78;5048057;28;20447;-46
2024/02/21 00:09:49;;;;;;;0.30;0.20;;;;;;;10.42;86.93;101153.59;5052036;28;20497;-46
2024/02/21 00:12:15;;;;;;;0.30;0.20;;;;;;;10.41;87.27;101150.94;5051854;28;20561;-46
2024/02/21 00:14:42;;;;;;;0.30;0.20;;;;;;;10.40;87.93;101150.06;5051918;28;20447;-47
2024/02/21 00:17:08;;;;;;;0.30;0.20;;;;;;;10.33;87.72;101149.28;5051700;28;20446;-46
2024/02/21 00:19:35;;;;;;;0.30;0.20;;;;;;;10.31;88.15;101142.22;5052076;28;20451;-46
2024/02/21 00:22:02;;;;;;;0.30;0.20;;;;;;;10.28;88.57;101142.25;5051949;28;20478;-46
2024/02/21 00:24:28;;;;;;;0.30;0.20;;;;;;;10.31;88.25;101140.44;5052251;28;20545;-46
2024/02/21 00:26:55;;;;;;;0.30;0.20;;;;;;;10.25;88.35;101139.63;5049077;28;21080;-46
2024/02/21 00:29:21;;;;;;;0.30;0.20;;;;;;;10.21;88.58;101125.53;5041687;28;20447;-46
2024/02/21 00:31:49;;;;;;;0.30;0.20;;;;;;;10.20;88.61;101125.50;5051668;28;20454;-46
2024/02/21 00:34:16;;;;;;;0.30;0.20;;;;;;;10.21;88.47;101116.63;5052171;28;20450;-46
2024/02/21 00:36:42;;;;;;;0.30;0.20;;;;;;;10.15;88.33;101109.66;5042376;28;20453;-46
2024/02/21 00:39:09;;;;;;;0.30;0.20;;;;;;;10.47;88.08;101097.69;5052067;28;20553;-46
2024/02/21 00:41:35;;;;;;;0.30;0.20;;;;;;;10.21;87.51;101098.03;5051583;28;20822;-46
2024/02/21 00:44:02;;;;;;;0.30;0.20;;;;;;;10.14;87.98;101097.22;5051702;28;20447;-46
2024/02/21 00:46:28;;;;;;;0.30;0.20;;;;;;;10.21;87.71;101088.31;5051136;28;20721;-46
2024/02/21 00:48:55;;;;;;;0.30;0.20;;;;;;;10.01;88.75;101096.56;5045358;28;20451;-47
2024/02/21 00:51:21;;;;;;;0.30;0.20;;;;;;;10.09;87.79;101091.13;5055059;28;20486;-46
2024/02/21 00:53:48;;;;;;;0.30;0.20;;;;;;;10.17;87.62;101097.22;5052636;28;21068;-46
2024/02/21 00:56:14;;;;;;;0.30;0.20;;;;;;;10.16;87.41;101095.47;5052467;28;20454;-46
2024/02/21 00:58:41;;;;;;;0.30;0.20;;;;;;;10.27;87.07;101103.28;5052751;28;20455;-46
2024/02/21 01:01:07;;;;;;;0.30;0.20;;;;;;;10.17;87.52;101106.97;5052982;28;20497;-46
2024/02/21 01:03:33;;;;;;;0.30;0.20;;;;;;;10.17;86.88;101106.97;5052651;28;20467;-46
2024/02/21 01:06:00;;;;;;;0.30;0.20;;;;;;;10.15;86.83;101106.13;5050358;28;20454;-46
2024/02/21 01:08:26;;;;;;;0.30;0.20;;;;;;;10.07;87.52;101117.69;5052714;28;20474;-46
2024/02/21 01:10:53;;;;;;;0.30;0.20;;;;;;;10.09;87.42;101120.34;5052950;28;20565;-46
2024/02/21 01:13:19;;;;;;;0.30;0.20;;;;;;;10.09;87.64;101125.66;5052893;28;20498;-46
2024/02/21 01:15:46;;;;;;;0.30;0.20;;;;;;;10.27;86.72;101121.88;5053295;28;20944;-46
2024/02/21 01:18:12;;;;;;;0.30;0.20;;;;;;;10.20;86.61;101109.56;5053737;28;20453;-46
2024/02/21 01:20:39;;;;;;;0.30;0.20;;;;;;;10.19;86.83;101107.81;5053350;28;20943;-46
2024/02/21 01:23:06;;;;;;;0.30;0.20;;;;;;;10.26;86.94;101102.41;5053422;28;20473;-46
2024/02/21 01:25:32;;;;;;;0.30;0.20;;;;;;;10.30;86.70;101103.28;5053123;28;20520;-46
2024/02/21 01:27:59;;;;;;;0.30;0.20;;;;;;;10.54;85.28;101083.41;5041729;28;20502;-46
2024/02/21 01:30:25;;;;;;;0.30;0.20;;;;;;;10.27;85.15;101082.03;5052057;28;20577;-46
2024/02/21 01:32:51;;;;;;;0.30;0.20;;;;;;;10.21;86.26;101079.44;5053053;28;20493;-46
2024/02/21 01:35:18;;;;;;;0.30;0.20;;;;;;;10.21;86.20;101071.47;5051828;28;20454;-46
2024/02/21 01:37:44;;;;;;;0.43;0.40;;;;;;;10.21;86.19;101067.06;5045442;28;20472;-46
2024/02/21 01:40:11;;;;;;;0.30;0.20;;;;;;;10.14;86.79;101060.03;5052494;28;20932;-46
2024/02/21 01:42:40;;;;;;;0.30;0.20;;;;;;;10.10;86.49;101055.69;5052678;28;20987;-46
2024/02/21 01:45:07;;;;;;;0.30;0.20;;;;;;;10.02;87.02;101055.81;5053906;28;20513;-46
2024/02/21 01:47:34;;;;;;;0.30;0.20;;;;;;;10.10;86.63;101051.25;5042873;28;20828;-46
2024/02/21 01:50:02;;;;;;;0.30;0.20;;;;;;;9.97;87.13;101041.69;5040029;28;20490;-47
2024/02/21 01:52:30;;;;;;;0.30;0.20;;;;;;;10.07;87.28;101034.47;5053274;28;20514;-45
2024/02/21 01:54:57;;;;;;;0.30;0.20;;;;;;;9.91;87.64;101036.47;5053866;28;20967;-46
2024/02/21 01:57:24;;;;;;;0.30;0.20;;;;;;;10.06;87.27;101038.91;5056782;28;20537;-46
2024/02/21 01:59:52;;;;;;;0.30;0.20;;;;;;;10.18;86.66;101027.25;5057107;28;21042;-46
2024/02/21 02:02:18;;;;;;;0.30;0.20;;;;;;;9.84;87.98;101031.25;5056594;28;20553;-46
2024/02/21 02:04:45;;;;;;;0.30;0.20;;;;;;;9.75;88.49;101029.63;5056307;28;20820;-46
2024/02/21 02:07:12;;;;;;;0.30;0.20;;;;;;;9.64;89.09;101036.84;5054805;28;20537;-46
2024/02/21 02:09:39;;;;;;;0.30;0.20;;;;;;;9.69;89.73;101029.69;5056657;28;20534;-46
2024/02/21 02:12:05;;;;;;;0.30;0.20;;;;;;;9.79;89.26;101032.22;5056188;28;20498;-46
2024/02/21 02:14:32;;;;;;;0.30;0.20;;;;;;;9.86;89.52;101025.03;5057123;28;20451;-46
2024/02/21 02:16:58;;;;;;;0.30;0.20;;;;;;;9.81;89.24;101024.22;5056829;28;20546;-46
2024/02/21 02:19:25;;;;;;;0.30;0.20;;;;;;;9.76;89.65;101024.28;5057069;28;20459;-46
2024/02/21 02:21:56;;;;;;;0.30;0.20;;;;;;;9.69;89.97;101025.25;5056964;28;20500;-46
2024/02/21 02:24:25;;;;;;;0.30;0.20;;;;;;;9.68;90.16;101015.53;5056805;28;20451;-46
2024/02/21 02:26:52;;;;;;;0.30;0.20;;;;;;;9.62;90.25;101002.38;5054600;28;20486;-46
2024/02/21 02:29:19;;;;;;;0.30;0.20;;;;;;;9.62;90.63;101002.38;5045895;28;20546;-46
2024/02/21 02:31:45;;;;;;;0.30;0.20;;;;;;;9.53;91.29;101012.22;5057642;28;20526;-46
2024/02/21 02:34:12;;;;;;;0.30;0.20;;;;;;;9.49;91.77;100999.00;5056285;28;20512;-46
2024/02/21 02:36:38;;;;;;;0.30;0.20;;;;;;;9.48;91.07;100996.34;5045765;28;20875;-46
2024/02/21 02:39:05;;;;;;;0.33;0.23;;;;;;;9.43;91.90;100995.53;5058754;28;20457;-47
2024/02/21 02:41:35;;;;;;;0.30;0.20;;;;;;;9.46;92.04;100998.16;5058163;28;20447;-46
2024/02/21 02:44:01;;;;;;;0.30;0.20;;;;;;;9.40;92.10;101007.06;5058535;28;20497;-46
2024/02/21 02:46:28;;;;;;;0.30;0.20;;;;;;;9.55;91.69;100999.78;5057020;28;20446;-45
2024/02/21 02:48:54;;;;;;;0.30;0.20;;;;;;;9.62;91.28;100985.56;5048409;28;20457;-46
2024/02/21 02:51:21;;;;;;;0.30;0.20;;;;;;;9.55;91.52;100984.75;5056692;28;20498;-47
2024/02/21 02:53:47;;;;;;;0.30;0.20;;;;;;;9.42;91.91;100991.13;5054080;28;20518;-48
2024/02/21 02:56:15;;;;;;;0.30;0.20;;;;;;;9.40;92.13;100988.47;5053533;28;21035;-48
2024/02/21 02:58:43;;;;;;;0.30;0.20;;;;;;;9.43;91.98;100977.81;5053823;28;20497;-48
2024/02/21 03:01:10;;;;;;;0.30;0.20;;;;;;;9.35;92.28;100976.19;5053469;28;20443;-48
2024/02/21 03:03:36;;;;;;;0.30;0.20;;;;;;;9.19;92.89;100975.50;5053480;28;20470;-48
2024/02/21 03:06:03;;;;;;;0.30;0.20;;;;;;;9.14;93.44;100974.66;5049489;28;20455;-48
2024/02/21 03:08:29;;;;;;;0.30;0.20;;;;;;;9.12;93.68;100961.41;5052743;28;20458;-48
2024/02/21 03:10:56;;;;;;;0.30;0.20;;;;;;;9.10;93.87;100970.28;5053201;28;20574;-48
2024/02/21 03:13:22;;;;;;;0.30;0.20;;;;;;;9.19;93.89;100965.75;5053248;28;20467;-48
2024/02/21 03:15:49;;;;;;;0.30;0.20;;;;;;;9.14;94.18;100967.56;5053045;28;20458;-47
2024/02/21 03:18:15;;;;;;;0.30;0.20;;;;;;;9.15;94.43;100958.72;5053019;28;20451;-47
2024/02/21 03:20:42;;;;;;;0.30;0.20;;;;;;;9.14;94.75;100951.66;5052773;28;20446;-48
2024/02/21 03:23:08;;;;;;;0.30;0.20;;;;;;;9.20;94.39;100941.00;5053080;28;20470;-48
2024/02/21 03:25:35;;;;;;;0.30;0.20;;;;;;;9.28;93.96;100934.69;5052721;28;20534;-48
2024/02/21 03:28:01;;;;;;;0.30;0.20;;;;;;;9.35;93.86;100944.34;5041155;28;20952;-48
2024/02/21 03:30:28;;;;;;;0.30;0.20;;;;;;;9.49;93.22;100947.69;5051362;28;20566;-48
2024/02/21 03:32:54;;;;;;;0.30;0.20;;;;;;;9.54;92.33;100942.31;5052555;28;20476;-47
2024/02/21 03:35:21;;;;;;;0.30;0.20;;;;;;;9.74;92.14;100951.75;5050735;28;20447;-47
2024/02/21 03:37:47;;;;;;;0.30;0.20;;;;;;;10.06;91.21;100953.91;5045483;28;20489;-48
2024/02/21 03:40:14;;;;;;;0.30;0.20;;;;;;;9.74;90.98;100951.75;5052283;28;20796;-48
2024/02/21 03:42:40;;;;;;;0.30;0.20;;;;;;;9.85;90.73;100961.31;5052619;28;20470;-48
2024/02/21 03:45:07;;;;;;;0.30;0.20;;;;;;;9.72;90.99;100960.63;5052384;28;20447;-48
2024/02/21 03:47:33;;;;;;;0.30;0.20;;;;;;;9.75;90.57;100955.28;5041921;28;20487;-48
2024/02/21 03:50:00;;;;;;;0.30;0.20;;;;;;;9.97;89.21;100955.84;5052398;28;20458;-48
2024/02/21 03:52:27;;;;;;;0.30;0.20;;;;;;;9.80;88.98;100969.38;5052100;28;21023;-48
2024/02/21 03:54:54;;;;;;;0.30;0.20;;;;;;;9.57;90.21;100960.84;5052233;28;20887;-48
2024/02/21 03:57:21;;;;;;;0.30;0.20;;;;;;;9.69;89.31;100956.25;5052231;28;20454;-47
2024/02/21 03:59:51;;;;;;;0.30;0.20;;;;;;;9.71;89.49;100951.78;5052262;28;20474;-48
2024/02/21 04:02:17;;;;;;;0.30;0.20;;;;;;;9.71;89.46;100946.47;5052256;28;20473;-48
2024/02/21 04:04:46;;;;;;;0.30;0.20;;;;;;;9.72;89.50;100937.59;5052314;28;20534;-48
2024/02/21 04:07:14;;;;;;;0.30;0.20;;;;;;;9.56;89.88;100927.25;5049715;28;20817;-48
2024/02/21 04:09:41;;;;;;;0.30;0.20;;;;;;;9.62;89.73;100914.78;5052010;28;20459;-48
2024/02/21 04:12:09;;;;;;;0.40;0.30;;;;;;;9.61;89.43;100910.38;5051783;28;20571;-48
2024/02/21 04:14:35;;;;;;;0.30;0.20;;;;;;;9.47;90.31;100910.56;5051860;28;20447;-48
2024/02/21 04:17:02;;;;;;;0.30;0.20;;;;;;;9.46;90.77;100916.78;5051845;28;20454;-48
2024/02/21 04:19:28;;;;;;;0.30;0.20;;;;;;;9.43;91.13;100914.13;5051701;28;20467;-48
2024/02/21 04:21:55;;;;;;;0.30;0.20;;;;;;;9.42;91.27;100912.38;5051689;28;20513;-48
2024/02/21 04:24:21;;;;;;;0.30;0.20;;;;;;;9.43;91.22;100910.59;5051597;28;20447;-47
2024/02/21 04:26:48;;;;;;;0.30;0.20;;;;;;;9.42;91.30;100915.03;5049779;28;20447;-47
2024/02/21 04:29:14;;;;;;;0.30;0.20;;;;;;;9.38;91.38;100916.00;5040388;28;20457;-48
2024/02/21 04:31:41;;;;;;;0.30;0.20;;;;;;;9.34;91.41;100910.75;5051607;28;20490;-47
2024/02/21 04:34:07;;;;;;;0.30;0.20;;;;;;;9.31;91.58;100895.72;5051811;28;20457;-47
2024/02/21 04:36:34;;;;;;;0.30;0.20;;;;;;;9.31;91.80;100889.56;5041816;28;20956;-48
2024/02/21 04:39:00;;;;;;;0.30;0.20;;;;;;;9.26;91.49;100880.78;5051558;28;20509;-47
2024/02/21 04:41:27;;;;;;;0.30;0.20;;;;;;;9.12;92.12;100883.63;5052076;28;20485;-47
2024/02/21 04:43:53;;;;;;;0.30;0.20;;;;;;;9.09;92.84;100870.41;5051445;28;20517;-47
2024/02/21 04:46:20;;;;;;;0.30;0.20;;;;;;;9.16;92.21;100885.31;5051391;28;20455;-48
2024/02/21 04:48:46;;;;;;;0.30;0.20;;;;;;;9.20;92.18;100879.09;5041469;28;20458;-47
2024/02/21 04:51:13;;;;;;;0.30;0.20;;;;;;;9.13;92.19;100878.28;5051370;28;20549;-48
2024/02/21 04:53:40;;;;;;;0.30;0.20;;;;;;;9.28;91.76;100877.22;5051112;28;20903;-48
2024/02/21 04:56:06;;;;;;;0.30;0.20;;;;;;;9.15;91.66;100878.28;5051147;28;20546;-48
2024/02/21 04:58:33;;;;;;;0.30;0.20;;;;;;;9.16;91.56;100866.75;5051220;28;20446;-48
2024/02/21 05:01:00;;;;;;;18.87;12.07;;;;;;;9.14;90.65;100865.91;5051211;28;20943;-48
2024/02/21 05:03:26;;;;;;;0.30;0.20;;;;;;;9.13;90.94;100878.28;5051272;28;20787;-48
2024/02/21 05:05:52;;;;;;;0.30;0.20;;;;;;;9.18;90.38;100884.44;5049089;28;20530;-48
2024/02/21 05:08:19;;;;;;;0.30;0.20;;;;;;;9.18;90.31;100884.44;5051497;28;20454;-48
2024/02/21 05:10:45;;;;;;;0.30;0.20;;;;;;;9.24;90.10;100888.78;5051149;28;20534;-48
2024/02/21 05:13:12;;;;;;;0.30;0.20;;;;;;;9.14;90.30;100889.78;5051314;28;20479;-48
2024/02/21 05:15:39;;;;;;;0.30;0.20;;;;;;;9.18;90.20;100892.41;5051632;28;20529;-48
2024/02/21 05:18:05;;;;;;;0.30;0.20;;;;;;;9.13;89.51;100886.25;5051337;28;20461;-48
2024/02/21 05:20:32;;;;;;;0.30;0.20;;;;;;;9.24;89.60;100882.59;5051080;28;20451;-48
2024/02/21 05:22:58;;;;;;;0.30;0.20;;;;;;;9.41;88.89;100876.13;5051140;28;20466;-48
2024/02/21 05:25:25;;;;;;;0.30;0.20;;;;;;;9.27;89.26;100878.13;5050749;28;20469;-48
2024/02/21 05:27:53;;;;;;;0.30;0.20;;;;;;;9.51;88.14;100882.19;5040607;28;20529;-48
2024/02/21 05:30:20;;;;;;;0.30;0.20;;;;;;;9.53;88.27;100876.88;5050344;28;20450;-48
2024/02/21 05:32:46;;;;;;;0.30;0.20;;;;;;;9.52;87.43;100867.16;5054854;28;20498;-48
2024/02/21 05:35:13;;;;;;;0.30;0.20;;;;;;;9.49;86.98;100876.03;5054003;28;20835;-48
2024/02/21 05:37:39;;;;;;;0.30;0.20;;;;;;;9.29;87.97;100860.41;5045729;28;20457;-48
2024/02/21 05:40:06;;;;;;;0.97;0.97;;;;;;;9.69;86.90;100863.34;5053260;28;21003;-48
2024/02/21 05:42:33;;;;;;;0.30;0.20;;;;;;;9.44;87.01;100857.50;5055126;28;20467;-48
2024/02/21 05:44:59;;;;;;;0.30;0.20;;;;;;;9.45;87.13;100858.38;5054724;28;20450;-48
2024/02/21 05:47:26;;;;;;;0.30;0.20;;;;;;;9.39;87.45;100861.16;5045768;28;20483;-48
2024/02/21 05:49:54;;;;;;;0.30;0.20;;;;;;;9.42;87.87;100861.97;5053115;28;20870;-48
2024/02/21 05:52:20;;;;;;;0.30;0.20;;;;;;;9.69;86.87;100863.34;5054238;28;20494;-49
2024/02/21 05:54:47;;;;;;;0.30;0.20;;;;;;;9.54;87.08;100858.25;5054426;28;20534;-48
2024/02/21 05:57:19;;;;;;;0.30;0.20;;;;;;;9.40;87.46;100857.59;5054643;28;20528;-48
2024/02/21 05:59:45;;;;;;;0.30;0.20;;;;;;;9.37;87.67;100857.66;5054459;28;20533;-48
2024/02/21 06:02:12;;;;;;;0.30;0.20;;;;;;;9.50;87.51;100852.13;5054167;28;21064;-48
2024/02/21 06:04:39;;;;;;;0.30;0.20;;;;;;;9.64;86.41;100851.91;5054233;28;20454;-48
2024/02/21 06:07:06;;;;;;;1.10;1.10;;;;;;;9.50;87.59;100849.47;5050967;28;20936;-48
2024/02/21 06:09:32;;;;;;;0.30;0.20;;;;;;;9.63;86.45;100846.63;5040975;28;20461;-48
2024/02/21 06:11:59;;;;;;;0.30;0.20;;;;;;;9.47;87.74;100835.38;5052965;28;20525;-48
2024/02/21 06:14:26;;;;;;;0.30;0.20;;;;;;;9.32;87.72;100841.81;5041232;28;20454;-48
2024/02/21 06:16:52;;;;;;;0.43;0.43;;;;;;;9.45;87.09;100840.69;5054098;28;20451;-48
2024/02/21 06:19:19;;;;;;;0.30;0.20;;;;;;;9.24;86.29;100830.41;5054163;28;20455;-48
2024/02/21 06:21:45;;;;;;;0.30;0.20;;;;;;;9.31;86.83;100828.53;5053889;28;20505;-49
2024/02/21 06:24:12;;;;;;;0.30;0.20;;;;;;;9.29;86.13;100828.56;5054209;28;20527;-48
2024/02/21 06:26:40;;;;;;;0.30;0.20;;;;;;;9.51;85.91;100821.16;5053108;28;20455;-48
2024/02/21 06:29:06;;;;;;;0.30;0.20;;;;;;;9.46;85.96;100825.69;5041592;28;20958;-48
2024/02/21 06:31:33;;;;;;;0.30;0.20;;;;;;;9.38;86.18;100822.25;5053862;28;20536;-48
2024/02/21 06:34:00;;;;;;;0.30;0.20;;;;;;;9.48;85.35;100822.09;5053860;28;20964;-48
2024/02/21 06:36:26;;;;;;;0.30;0.20;;;;;;;9.43;85.37;100823.03;5043728;28;20473;-48
2024/02/21 06:38:53;;;;;;;0.30;0.20;;;;;;;9.30;85.43;100816.16;5053800;28;20443;-48
2024/02/21 06:41:20;;;;;;;0.30;0.20;;;;;;;9.28;85.85;100824.16;5053578;28;20471;-48
2024/02/21 06:43:47;;;;;;;0.30;0.20;;;;;;;9.22;85.75;100818.94;5053791;28;20455;-49
2024/02/21 06:46:28;;;;;;;0.30;0.20;;;;;;;9.07;86.33;100822.69;5053683;28;20814;-48
2024/02/21 06:48:58;;;;;;;0.30;0.20;;;;;;;9.14;86.09;100831.44;5043822;28;20457;-48
2024/02/21 06:51:25;;;;;;;0.30;0.20;;;;;;;9.26;85.89;100822.44;5053536;28;20486;-48
2024/02/21 06:53:52;;;;;;;0.30;0.20;;;;;;;9.28;85.80;100816.19;5053670;28;20474;-48
2024/02/21 06:56:19;;;;;;;0.30;0.20;;;;;;;9.18;85.72;100817.22;5053264;28;20458;-48
2024/02/21 06:58:45;;;;;;;0.30;0.20;;;;;;;9.20;85.91;100813.69;5053648;28;20489;-48
2024/02/21 07:01:12;;;;;;;0.30;0.20;;;;;;;9.50;85.22;100808.81;5053148;28;20473;-48
2024/02/21 07:03:38;;;;;;;0.30;0.20;;;;;;;9.31;85.05;100810.84;5053361;28;20474;-49
2024/02/21 07:06:05;;;;;;;0.30;0.20;;;;;;;9.27;84.49;100800.31;5049730;28;20479;-48
2024/02/21 07:08:31;;;;;;;0.30;0.20;;;;;;;9.31;85.14;100804.66;5053383;28;20512;-48
2024/02/21 07:10:58;;;;;;;0.40;0.40;;;;;;;9.32;84.96;100809.06;5053071;28;20446;-48
2024/02/21 07:13:25;;;;;;;0.30;0.20;;;;;;;9.78;84.52;100799.47;5053202;28;20505;-48
2024/02/21 07:15:51;;;;;;;0.30;0.20;;;;;;;9.70;83.25;100819.06;5052943;28;20520;-48
2024/02/21 07:18:18;;;;;;;0.30;0.20;;;;;;;9.42;84.32;100816.88;5053372;28;20537;-48
2024/02/21 07:20:44;;;;;;;2.30;2.13;;;;;;;9.38;84.19;100811.63;5053230;28;20542;-49
2024/02/21 07:23:11;;;;;;;2.77;2.53;;;;;;;9.63;83.60;100817.44;5053268;28;20475;-49
2024/02/21 07:25:39;;;;;;;0.30;0.20;;;;;;;9.35;84.76;100819.66;5053418;28;20463;-48
2024/02/21 07:28:06;;;;;;;0.30;0.20;;;;;;;9.48;84.37;100818.56;5053411;28;20482;-48
2024/02/21 07:30:33;;;;;;;0.30;0.20;;;;;;;9.34;84.81;100810.81;5051447;28;20450;-51
2024/02/21 07:32:59;;;;;;;0.30;0.20;;;;;;;9.48;84.67;100811.47;5052935;28;20522;-48
2024/02/21 07:35:26;;;;;;;0.30;0.20;;;;;;;9.53;84.44;100816.69;5050350;28;20455;-48
2024/02/21 07:37:52;;;;;;;0.30;0.20;;;;;;;9.62;84.21;100810.38;5046180;28;20501;-49
2024/02/21 07:40:19;;;;;;;0.30;0.20;;;;;;;9.51;84.00;100802.59;5052352;28;20454;-48
2024/02/21 07:42:46;;;;;;;0.30;0.20;;;;;;;9.52;84.95;100800.81;5052514;28;20520;-48
2024/02/21 07:45:18;;;;;;;0.30;0.20;;;;;;;9.56;83.61;100795.41;5040107;28;20871;-48
2024/02/21 07:47:45;;;;;;;0.30;0.20;;;;;;;9.74;83.50;100781.84;5041620;28;20505;-48
2024/02/21 07:50:12;;;;;;;0.30;0.20;;;;;;;9.64;82.84;100788.22;5052612;28;20486;-48
2024/02/21 07:52:38;;;;;;;0.30;0.20;;;;;;;9.76;82.79;100787.13;5050279;28;20499;-48
2024/02/21 07:55:05;;;;;;;0.30;0.20;;;;;;;10.03;82.42;100785.78;5052217;28;20959;-48
2024/02/21 07:57:32;;;;;;;0.30;0.20;;;;;;;9.71;83.09;100775.69;5052331;28;20478;-49
2024/02/21 07:59:58;;;;;;;0.30;0.20;;;;;;;9.68;83.83;100778.41;5052516;28;20446;-48
2024/02/21 08:02:24;;;;;;;0.63;0.63;;;;;;;9.63;83.64;100777.63;5052165;28;20991;-49
2024/02/21 08:04:51;;;;;;;0.30;0.20;;;;;;;9.77;83.61;100779.16;5052293;28;20455;-48
2024/02/21 08:07:17;;;;;;;0.30;0.20;;;;;;;9.77;83.00;100772.97;5049354;28;20450;-48
2024/02/21 08:09:44;;;;;;;0.30;0.20;;;;;;;9.82;82.51;100776.41;5051846;28;20952;-49
2024/02/21 08:12:11;;;;;;;0.30;0.20;;;;;;;10.23;82.25;100766.81;5052175;28;20530;-48
2024/02/21 08:14:37;;;;;;;0.30;0.20;;;;;;;9.98;82.24;100759.28;5052193;28;20443;-48
2024/02/21 08:17:04;;;;;;;0.30;0.20;;;;;;;10.26;81.47;100764.09;5051755;28;20885;-49
2024/02/21 08:19:31;;;;;;;0.30;0.20;;;;;;;10.03;82.35;100754.78;5052128;28;20833;-48
2024/02/21 08:21:57;;;;;;;0.30;0.20;;;;;;;10.03;80.90;100760.09;5050585;28;20840;-48
2024/02/21 08:24:24;;;;;;;0.30;0.20;;;;;;;10.21;81.30;100753.56;5051717;28;21001;-48
2024/02/21 08:26:50;;;;;;;0.30;0.20;;;;;;;10.09;81.40;100754.66;5049410;28;20550;-48
2024/02/21 08:29:16;;;;;;;0.30;0.20;;;;;;;10.37;80.73;100754.13;5041311;28;20900;-49
2024/02/21 08:31:43;;;;;;;0.30;0.20;;;;;;;10.26;80.29;100751.69;5051745;28;20451;-49
2024/02/21 08:34:10;;;;;;;0.30;0.20;;;;;;;10.19;81.34;100754.47;5051805;28;20454;-49
2024/02/21 08:36:36;;;;;;;0.30;0.20;;;;;;;10.32;81.32;100756.03;5042219;28;20975;-49
2024/02/21 08:39:04;;;;;;;0.30;0.20;;;;;;;10.29;81.49;100762.28;5051691;28;20454;-49
2024/02/21 08:41:32;;;;;;;0.30;0.20;;;;;;;10.31;80.66;100754.28;5051277;28;20457;-49
2024/02/21 08:44:17;;;;;;;0.30;0.20;;;;;;;10.45;80.32;100748.69;5051725;28;20446;-49
2024/02/21 08:46:44;;;;;;;0.30;0.20;;;;;;;10.39;80.47;100742.56;5048081;28;20558;-49
2024/02/21 08:49:10;;;;;;;0.30;0.20;;;;;;;10.48;80.17;100746.81;5044619;28;20486;-49
2024/02/21 08:51:37;;;;;;;0.30;0.20;;;;;;;10.61;79.89;100740.34;5051217;28;20863;-49
2024/02/21 08:54:04;;;;;;;0.30;0.20;;;;;;;10.77;78.94;100732.03;5096495;23;20592;-48
2024/02/21 08:56:31;;;;;;;0.30;0.20;;;;;;;10.84;78.54;100723.03;5091646;28;20495;-48
2024/02/21 08:58:57;;;;;;;0.30;0.20;;;;;;;10.84;77.65;100718.56;5091576;28;20455;-48
2024/02/21 09:01:24;;;;;;;0.30;0.20;;;;;;;10.99;78.13;100717.34;5091830;28;20449;-49
2024/02/21 09:03:53;;;;;;;0.30;0.20;;;;;;;11.16;77.54;100712.50;5092109;28;20538;-48
2024/02/21 09:06:20;;;;;;;0.30;0.20;;;;;;;10.94;78.53;100725.41;5090193;28;20536;-47
2024/02/21 09:08:46;;;;;;;0.30;0.20;;;;;;;11.08;78.06;100726.88;5095638;28;20448;-48
2024/02/21 09:11:13;;;;;;;0.30;0.20;;;;;;;11.02;77.48;100713.72;5095882;28;20484;-48
2024/02/21 09:13:39;;;;;;;0.30;0.20;;;;;;;11.11;77.81;100708.19;5095330;28;20496;-48
2024/02/21 09:16:06;;;;;;;0.30;0.20;;;;;;;11.23;77.22;100706.09;5095646;28;20865;-48
2024/02/21 09:18:32;;;;;;;0.30;0.20;;;;;;;11.20;77.43;100700.84;5095507;28;20449;-49
2024/02/21 09:21:00;;;;;;;0.30;0.20;;;;;;;11.13;76.64;100695.72;5095380;28;20475;-48
2024/02/21 09:23:26;;;;;;;0.30;0.20;;;;;;;11.24;76.70;100693.69;5095443;28;20465;-47
2024/02/21 09:25:55;;;;;;;0.30;0.20;;;;;;;11.30;75.73;100690.84;5094044;28;20449;-47
2024/02/21 09:28:22;;;;;;;0.30;0.20;;;;;;;11.41;75.62;100691.47;5081677;28;20438;-47
2024/02/21 09:30:49;;;;;;;0.30;0.20;;;;;;;11.42;75.40;100685.22;5095582;28;20457;-49
2024/02/21 09:33:15;;;;;;;0.30;0.20;;;;;;;11.34;75.31;100683.66;5094933;28;20516;-50
2024/02/21 09:35:57;;;;;;;0.30;0.20;;;;;;;11.38;75.06;100680.91;5081534;28;20454;-50
2024/02/21 09:38:23;;;;;;;0.30;0.20;;;;;;;11.63;74.88;100682.91;5089479;28;20455;-49
2024/02/21 09:41:02;;;;;;;0.30;0.20;;;;;;;11.71;73.90;100680.94;5095218;28;20494;-48
2024/02/21 09:43:29;;;;;;;0.30;0.20;;;;;;;11.74;74.87;100672.84;5094865;28;20553;-48
2024/02/21 09:45:58;;;;;;;0.30;0.20;;;;;;;11.64;73.25;100668.69;5095057;28;20420;-49
2024/02/21 09:48:49;;;;;;;0.30;0.20;;;;;;;11.42;74.62;100663.06;5066380;28;20449;-48
2024/02/21 09:51:16;;;;;;;0.30;0.20;;;;;;;11.44;74.37;100651.47;5091490;28;20441;-47
2024/02/21 09:53:45;;;;;;;0.30;0.20;;;;;;;11.49;74.64;100654.84;5094802;28;20989;-47
2024/02/21 09:56:27;;;;;;;0.30;0.20;;;;;;;11.66;74.48;100651.78;5094844;28;20940;-48
2024/02/21 09:58:54;;;;;;;0.30;0.20;;;;;;;11.73;73.83;100649.78;5095110;28;20452;-48
2024/02/21 10:01:21;;;;;;;0.30;0.20;;;;;;;11.80;73.76;100648.75;5094954;28;20558;-48
2024/02/21 10:04:00;;;;;;;0.30;0.20;;;;;;;11.89;72.92;100647.59;5094744;28;20460;-49
2024/02/21 10:06:26;;;;;;;0.30;0.20;;;;;;;11.96;72.51;100644.75;5089489;28;20449;-48
2024/02/21 10:08:53;;;;;;;0.30;0.20;;;;;;;11.84;73.77;100639.75;5094604;28;20452;-48
2024/02/21 10:11:24;;;;;;;0.30;0.20;;;;;;;11.91;72.89;100643.09;5094798;28;20468;-48
2024/02/21 10:13:51;;;;;;;0.30;0.20;;;;;;;11.76;72.49;100637.25;5094702;28;20571;-48
2024/02/21 10:16:18;;;;;;;0.30;0.20;;;;;;;11.90;73.03;100639.56;5094122;28;20919;-48
2024/02/21 10:18:44;;;;;;;0.30;0.20;;;;;;;11.82;72.50;100630.94;5094504;28;20449;-48
2024/02/21 10:21:11;;;;;;;0.30;0.20;;;;;;;11.95;72.83;100632.34;5094513;28;20514;-51
2024/02/21 10:23:51;;;;;;;0.30;0.20;;;;;;;12.16;72.56;100630.81;5094520;28;20904;-49
2024/02/21 10:26:19;;;;;;;0.30;0.20;;;;;;;12.10;72.27;100623.03;5072037;28;20533;-48
2024/02/21 10:28:47;;;;;;;0.30;0.20;;;;;;;12.18;71.43;100615.66;5078099;28;20472;-50
2024/02/21 10:31:24;;;;;;;0.30;0.20;;;;;;;12.30;71.58;100611.75;5095180;28;20838;-49
2024/02/21 10:33:55;;;;;;;0.30;0.20;;;;;;;12.16;72.12;100607.72;5094644;28;20500;-48
2024/02/21 10:36:21;;;;;;;0.30;0.20;;;;;;;12.22;71.55;100609.34;5074744;28;20539;-48
2024/02/21 10:38:48;;;;;;;0.30;0.20;;;;;;;12.13;72.53;100599.81;5094528;28;20544;-48
2024/02/21 10:41:17;;;;;;;0.30;0.20;;;;;;;12.24;73.15;100604.84;5094219;28;20506;-48
2024/02/21 10:43:51;;;;;;;0.30;0.20;;;;;;;12.54;72.14;100596.81;5094294;28;20469;-50
2024/02/21 10:46:23;;;;;;;0.30;0.20;;;;;;;12.37;72.71;100600.88;5066820;28;20428;-48
2024/02/21 10:49:03;;;;;;;0.30;0.20;;;;;;;12.41;72.15;100589.19;5054249;28;20447;-48
2024/02/21 10:51:34;;;;;;;0.30;0.20;;;;;;;12.56;72.09;100585.16;5090334;28;20445;-48
2024/02/21 10:54:21;;;;;;;0.30;0.20;;;;;;;12.43;72.18;100579.34;5093565;28;20982;-48
2024/02/21 10:56:49;;;;;;;0.30;0.20;;;;;;;12.54;71.75;100584.34;5093564;28;20449;-48
2024/02/21 10:59:17;;;;;;;0.30;0.20;;;;;;;12.34;72.42;100586.78;5093824;28;20477;-46
2024/02/21 11:01:43;;;;;;;0.30;0.20;;;;;;;12.44;71.21;100572.22;5093879;28;20452;-48
2024/02/21 11:04:14;;;;;;;0.30;0.20;;;;;;;12.48;71.12;100573.88;5093420;28;20995;-48
2024/02/21 11:06:41;;;;;;;0.30;0.20;;;;;;;12.50;72.11;100569.38;5086618;28;20441;-48
2024/02/21 11:09:10;;;;;;;0.30;0.20;;;;;;;12.61;71.59;100567.22;5093302;28;21059;-49
2024/02/21 11:11:39;;;;;;;0.30;0.20;;;;;;;12.58;71.77;100569.97;5093698;28;20828;-50
2024/02/21 11:14:09;;;;;;;0.30;0.20;;;;;;;12.53;72.25;100558.59;5089751;28;20573;-48
2024/02/21 11:16:40;;;;;;;0.30;0.20;;;;;;;12.66;71.83;100551.94;5084364;28;20427;-48
2024/02/21 11:19:19;;;;;;;0.30;0.20;;;;;;;12.78;71.73;100541.78;5092177;28;20536;-48
2024/02/21 11:21:47;;;;;;;0.30;0.20;;;;;;;12.79;71.14;100538.19;5093129;28;20483;-50
2024/02/21 11:24:32;;;;;;;0.60;0.60;;;;;;;12.83;71.53;100537.16;5093457;28;20469;-49
2024/02/21 11:27:15;;;;;;;0.30;0.20;;;;;;;12.71;71.91;100525.97;5088093;28;20438;-51
2024/02/21 11:29:51;;;;;;;0.30;0.20;;;;;;;12.79;71.45;100522.19;5085186;28;20448;-48